Time;durP1;ratioP1;P1;durP2;ratioP2;P2;SDS_P1;SDS_P2;PMS_P1;PMS_P2;Temp;Humidity;BMP_temperature;BMP_pressure;BME280_temperature;BME280_humidity;BME280_pressure;Samples;Min_cycle;Max_cycle;Signal;HPM_P1;HPM_P2
2023/12/23 00:00:02;;;;;;;;;6.00;6.00;;;;;10.23;56.01;100098.94;146614;746;45020;-66
2023/12/23 00:03:13;;;;;;;;;8.50;6.75;;;;;10.13;56.02;100115.78;146616;604;46913;-66
2023/12/23 00:06:16;;;;;;;;;9.00;7.00;;;;;9.91;56.81;100121.75;146619;559;46010;-65
2023/12/23 00:09:21;;;;;;;;;10.25;9.25;;;;;9.78;57.28;100118.53;146615;584;47012;-65
2023/12/23 00:12:25;;;;;;;;;13.00;12.00;;;;;9.61;58.15;100113.50;146608;580;46020;-66
2023/12/23 00:15:24;;;;;;;;;8.75;8.00;;;;;9.42;58.59;100108.31;146606;600;47014;-66
2023/12/23 00:18:57;;;;;;;;;10.00;10.00;;;;;6.17;58.87;99580.00;146617;648;46021;-66
2023/12/23 00:21:55;;;;;;;;;10.00;10.00;;;;;9.23;59.60;100116.91;146605;645;47012;-65
2023/12/23 00:24:47;;;;;;;;;12.25;12.00;;;;;9.22;60.13;100130.62;146613;617;46011;-65
2023/12/23 00:27:48;;;;;;;;;4.75;4.75;;;;;9.25;59.76;100131.69;146609;597;46016;-66
2023/12/23 00:30:58;;;;;;;;;6.25;5.25;;;;;9.29;60.28;100129.25;146620;574;47010;-64
2023/12/23 00:33:57;;;;;;;;;6.00;5.00;;;;;9.32;60.03;100148.41;146613;571;47016;-65
2023/12/23 00:36:59;;;;;;;;;13.25;13.25;;;;;9.23;60.15;100159.19;146620;600;46010;-66
2023/12/23 00:40:09;;;;;;;;;14.75;11.50;;;;;9.14;60.64;100174.25;146607;664;46017;-65
2023/12/23 00:43:08;;;;;;;;;15.50;13.00;;;;;9.02;61.05;100176.25;146606;704;46024;-65
2023/12/23 00:46:03;;;;;;;;;11.00;9.75;;;;;8.89;61.32;100182.53;146610;618;46016;-64
2023/12/23 00:49:10;;;;;;;;;12.75;10.00;;;;;8.81;61.28;100181.25;146621;691;46010;-65
2023/12/23 00:52:19;;;;;;;;;17.50;17.00;;;;;6.19;60.86;99729.34;146608;608;46012;-66
2023/12/23 00:55:14;;;;;;;;;19.75;18.00;;;;;8.77;62.26;100189.69;146613;611;46021;-65
2023/12/23 00:58:15;;;;;;;;;11.00;9.75;;;;;8.78;62.43;100171.69;146605;591;46016;-65
2023/12/23 01:01:20;;;;;;;;;13.00;11.00;;;;;8.75;62.07;100176.69;146617;603;47021;-65
2023/12/23 01:04:24;;;;;;;;;9.75;8.00;;;;;8.72;63.11;100175.63;146611;578;46032;-65
2023/12/23 01:07:45;;;;;;;;;20.25;16.25;;;;;6.38;61.87;99769.81;146619;583;46010;-64
2023/12/23 01:10:40;;;;;;;;;17.00;15.50;;;;;8.64;63.20;100167.50;146611;566;46026;-64
2023/12/23 01:13:40;;;;;;;;;5.25;3.75;;;;;8.62;63.22;100155.31;146607;563;46010;-65
2023/12/23 01:17:00;;;;;;;;;6.25;6.25;;;;;8.62;63.70;100158.78;146615;564;46016;-65
2023/12/23 01:19:59;;;;;;;;;7.75;6.75;;;;;8.66;64.07;100155.56;146622;664;46010;-65
2023/12/23 01:23:00;;;;;;;;;10.50;8.75;;;;;8.75;64.07;100137.94;146617;598;46012;-65
2023/12/23 01:26:04;;;;;;;;;25.00;19.75;;;;;8.81;63.44;100147.66;146619;606;46020;-67
2023/12/23 01:29:06;;;;;;;;;25.75;24.00;;;;;8.91;63.38;100141.22;146602;611;47014;-65
2023/12/23 01:32:14;;;;;;;;;24.50;20.75;;;;;9.01;63.41;100138.28;146612;580;47020;-67
2023/12/23 01:35:19;;;;;;;;;29.00;24.00;;;;;9.08;62.75;100140.34;146607;587;47012;-65
2023/12/23 01:38:30;;;;;;;;;28.00;27.50;;;;;9.13;62.81;100141.47;146613;579;46010;-66
2023/12/23 01:41:41;;;;;;;;;25.75;23.50;;;;;9.20;62.07;100145.22;146610;574;46016;-65
2023/12/23 01:44:44;;;;;;;;;20.50;19.25;;;;;9.24;62.30;100141.97;146606;594;46010;-67
2023/12/23 01:48:06;;;;;;;;;20.50;19.50;;;;;6.21;60.98;99615.38;146610;600;46016;-66
2023/12/23 01:51:08;;;;;;;;;23.25;19.00;;;;;9.38;60.92;100150.38;146613;575;46020;-67
2023/12/23 01:54:19;;;;;;;;;17.00;14.00;;;;;9.39;59.96;100144.38;146611;598;46014;-68
2023/12/23 01:57:25;;;;;;;;;;;;;;;;;;;;;
2023/12/23 02:00:27;;;;;;;;;44.75;35.25;;;;;9.34;60.42;100162.25;146605;585;47013;-68
2023/12/23 02:03:21;;;;;;;;;21.50;18.00;;;;;9.16;60.79;100161.44;146610;676;46020;-67
2023/12/23 02:06:15;;;;;;;;;18.75;15.25;;;;;8.99;60.97;100161.47;146606;579;46915;-67
2023/12/23 02:09:23;;;;;;;;;17.75;13.25;;;;;8.90;60.87;100154.97;146612;611;46021;-67
2023/12/23 02:12:52;;;;;;;;;19.25;16.00;;;;;6.64;60.67;99792.66;146609;611;46016;-69
2023/12/23 02:15:50;;;;;;;;;19.00;16.75;;;;;8.65;61.75;100170.97;146604;596;47014;-68
2023/12/23 02:19:03;;;;;;;;;;;;;;;;;;;;;
2023/12/23 02:22:06;;;;;;;;;32.00;26.25;;;;;8.60;62.73;100181.09;146608;588;46021;-67
2023/12/23 02:25:02;;;;;;;;;39.25;32.50;;;;;8.59;62.45;100170.66;146602;708;46012;-67
2023/12/23 02:28:30;;;;;;;;;;;;;;;;;;;;;
2023/12/23 02:31:46;;;;;;;;;13.00;11.25;;;;;8.40;62.00;100168.84;146604;588;47019;-66
2023/12/23 02:34:54;;;;;;;;;10.50;9.50;;;;;8.29;62.55;100166.59;146610;679;47020;-65
2023/12/23 02:38:30;;;;;;;;;8.50;8.25;;;;;3.75;61.80;99391.47;146612;672;46913;-66
2023/12/23 02:41:31;;;;;;;;;10.50;8.50;;;;;8.17;62.15;100170.25;146617;646;46010;-67
2023/12/23 02:44:31;;;;;;;;;15.00;12.25;;;;;8.17;62.83;100171.12;146610;746;46016;-64
2023/12/23 02:47:31;;;;;;;;;19.75;14.50;;;;;8.19;62.57;100173.75;146603;597;46020;-65
2023/12/23 02:50:28;;;;;;;;;20.00;19.50;;;;;8.19;63.06;100181.50;146602;566;47016;-65
2023/12/23 02:53:41;;;;;;;;;17.75;16.25;;;;;8.12;62.67;100166.53;146608;569;46011;-67
2023/12/23 02:56:36;;;;;;;;;12.25;11.75;;;;;7.98;62.94;100164.12;146609;566;46035;-67
2023/12/23 02:59:54;;;;;;;;;8.00;6.25;;;;;7.86;63.70;100169.50;146611;590;47020;-68
2023/12/23 03:02:58;;;;;;;;;8.50;7.75;;;;;7.77;63.81;100175.87;146610;674;46014;-67
2023/12/23 03:05:56;;;;;;;;;9.25;6.75;;;;;7.70;63.85;100176.37;146617;599;46010;-67
2023/12/23 03:08:58;;;;;;;;;7.00;7.00;;;;;7.63;64.17;100175.13;146611;569;46913;-68
2023/12/23 03:11:55;;;;;;;;;13.00;11.00;;;;;7.56;64.96;100173.03;146618;569;46020;-65
2023/12/23 03:15:02;;;;;;;;;11.75;11.00;;;;;7.50;65.09;100178.72;146608;615;47012;-65
2023/12/23 03:17:57;;;;;;;;;24.75;22.00;;;;;7.37;65.60;100177.19;146613;581;47010;-67
2023/12/23 03:21:11;;;;;;;;;16.75;13.75;;;;;7.26;66.09;100180.88;146603;614;47013;-68
2023/12/23 03:24:15;;;;;;;;;17.75;15.75;;;;;7.16;66.11;100176.91;146611;569;46020;-66
2023/12/23 03:27:36;;;;;;;;;21.50;18.50;;;;;7.08;65.52;100170.41;146609;576;46016;-65
2023/12/23 03:30:41;;;;;;;;;10.00;9.25;;;;;7.10;66.29;100183.37;146613;595;46021;-65
2023/12/23 03:33:37;;;;;;;;;9.75;8.25;;;;;7.08;66.32;100180.72;146607;565;48012;-64
2023/12/23 03:36:34;;;;;;;;;12.25;10.50;;;;;7.03;66.43;100182.16;146615;566;46015;-66
2023/12/23 03:39:31;;;;;;;;;7.00;5.50;;;;;6.96;66.92;100184.31;146608;579;46912;-64
2023/12/23 03:42:30;;;;;;;;;8.00;7.00;;;;;6.90;66.91;100184.84;146618;616;46010;-67
2023/12/23 03:45:28;;;;;;;;;11.25;9.50;;;;;6.78;66.84;100159.25;146610;581;46033;-67
2023/12/23 03:48:33;;;;;;;;;15.25;10.50;;;;;6.82;67.58;100173.19;146610;569;46020;-66
2023/12/23 03:51:48;;;;;;;;;9.50;8.25;;;;;6.79;67.39;100173.00;146610;587;46016;-64
2023/12/23 03:54:50;;;;;;;;;10.25;10.00;;;;;6.75;67.95;100171.94;146618;563;46020;-63
2023/12/23 03:57:55;;;;;;;;;9.00;8.50;;;;;6.66;67.67;100174.88;146610;663;46016;-63
2023/12/23 04:01:40;;;;;;;;;;;;;;;;;;;;;
2023/12/23 04:04:49;;;;;;;;;12.25;11.00;;;;;6.60;67.78;100171.06;146599;598;47911;-62
2023/12/23 04:07:53;;;;;;;;;13.75;12.50;;;;;6.62;68.22;100169.47;146614;612;47020;-63
2023/12/23 04:11:00;;;;;;;;;13.25;10.75;;;;;6.62;67.74;100174.62;146611;605;46016;-64
2023/12/23 04:14:10;;;;;;;;;13.75;12.75;;;;;2.07;67.49;99390.81;146609;615;47010;-65
2023/12/23 04:17:17;;;;;;;;;19.00;16.25;;;;;6.57;67.42;100183.75;146607;696;46016;-65
2023/12/23 04:20:22;;;;;;;;;16.00;11.25;;;;;6.56;68.45;100192.31;146604;637;46020;-65
2023/12/23 04:23:22;;;;;;;;;16.25;14.25;;;;;6.50;69.17;100199.66;146611;577;46016;-65
2023/12/23 04:26:22;;;;;;;;;13.25;11.50;;;;;6.45;69.02;100210.59;146614;563;46010;-66
2023/12/23 04:29:19;;;;;;;;;15.00;15.00;;;;;6.44;69.05;100205.34;146608;576;47012;-65
2023/12/23 04:32:29;;;;;;;;;15.00;13.00;;;;;6.46;69.71;100198.59;146614;614;46020;-68
2023/12/23 04:35:41;;;;;;;;;17.50;16.75;;;;;6.43;69.17;100183.84;146604;578;47013;-64
2023/12/23 04:38:46;;;;;;;;;16.50;14.75;;;;;6.41;69.50;100190.59;146614;645;46010;-64
2023/12/23 04:42:08;;;;;;;;;14.25;13.00;;;;;6.41;68.74;100200.88;146608;580;47012;-65
2023/12/23 04:45:16;;;;;;;;;14.50;12.25;;;;;6.42;68.51;100197.53;146612;565;46021;-65
2023/12/23 04:48:31;;;;;;;;;14.25;11.50;;;;;4.26;68.41;99821.09;146606;612;48016;-66
2023/12/23 04:51:44;;;;;;;;;13.00;11.50;;;;;6.52;68.95;100203.25;146607;586;46021;-67
2023/12/23 04:54:36;;;;;;;;;14.00;13.75;;;;;6.58;69.22;100203.59;146609;580;46016;-67
2023/12/23 04:57:35;;;;;;;;;11.50;11.50;;;;;6.63;69.87;100213.34;146614;590;46020;-67
2023/12/23 05:00:41;;;;;;;;;11.50;10.75;;;;;6.67;68.78;100207.59;146609;641;46016;-68
2023/12/23 05:03:34;;;;;;;;;8.00;8.00;;;;;6.66;69.92;100202.34;146611;604;47020;-67
2023/12/23 05:06:43;;;;;;;;;19.25;17.00;;;;;6.65;69.14;100208.31;146611;585;46016;-67
2023/12/23 05:10:00;;;;;;;;;15.00;14.75;;;;;2.86;68.44;99553.53;146614;678;46014;-68
2023/12/23 05:12:57;;;;;;;;;9.00;9.00;;;;;6.65;68.90;100216.91;146607;573;46016;-68
2023/12/23 05:15:51;;;;;;;;;8.50;8.00;;;;;6.66;68.70;100231.56;146611;584;47020;-68
2023/12/23 05:18:58;;;;;;;;;11.00;10.00;;;;;6.71;68.56;100237.00;146610;585;47915;-69
2023/12/23 05:21:57;;;;;;;;;11.00;11.00;;;;;6.69;69.68;100221.44;146608;614;46020;-68
2023/12/23 05:24:55;;;;;;;;;7.50;6.50;;;;;6.59;70.08;100225.97;146610;621;46016;-68
2023/12/23 05:28:08;;;;;;;;;8.00;8.00;;;;;6.51;69.86;100224.63;146614;688;47011;-66
2023/12/23 05:31:03;;;;;;;;;9.00;9.00;;;;;6.49;70.06;100232.28;146609;618;46016;-64
2023/12/23 05:34:09;;;;;;;;;16.25;14.00;;;;;6.52;70.43;100244.44;146614;573;46011;-64
2023/12/23 05:37:06;;;;;;;;;13.50;12.25;;;;;6.59;69.59;100246.59;146608;565;47012;-65
2023/12/23 05:40:10;;;;;;;;;19.00;16.75;;;;;6.67;69.55;100251.41;146614;584;46010;-67
2023/12/23 05:43:03;;;;;;;;;18.00;16.50;;;;;6.74;68.97;100250.06;146607;638;46017;-66
2023/12/23 05:46:23;;;;;;;;;14.75;13.50;;;;;6.75;69.34;100253.53;146614;578;46010;-67
2023/12/23 05:49:18;;;;;;;;;12.75;12.00;;;;;6.66;69.70;100254.75;146611;602;46013;-68
2023/12/23 05:52:18;;;;;;;;;18.75;14.50;;;;;6.58;69.41;100252.53;146602;619;47010;-70
2023/12/23 05:55:32;;;;;;;;;15.25;12.50;;;;;6.47;69.30;100241.59;146608;610;46016;-69
2023/12/23 05:58:34;;;;;;;;;15.25;13.00;;;;;6.38;69.54;100241.91;146610;630;47010;-67
2023/12/23 06:01:33;;;;;;;;;17.25;15.75;;;;;6.38;70.47;100243.59;146608;593;46016;-68
2023/12/23 06:04:37;;;;;;;;;14.25;13.00;;;;;6.41;70.77;100243.78;146613;688;47021;-68
2023/12/23 06:07:34;;;;;;;;;14.00;12.00;;;;;6.47;71.16;100254.47;146607;605;46016;-67
2023/12/23 06:10:34;;;;;;;;;15.00;12.75;;;;;6.55;70.58;100265.25;146615;613;46010;-66
2023/12/23 06:13:45;;;;;;;;;;;;;;;;;;;;;
2023/12/23 06:16:51;;;;;;;;;14.50;13.25;;;;;6.64;71.05;100250.34;146612;563;47010;-66
2023/12/23 06:20:12;;;;;;;;;11.75;9.75;;;;;4.02;69.92;99805.97;146609;638;46017;-67
2023/12/23 06:23:20;;;;;;;;;12.25;10.50;;;;;6.72;70.98;100265.41;146609;612;46020;-66
2023/12/23 06:26:20;;;;;;;;;15.00;11.50;;;;;6.80;71.49;100263.31;146608;564;46017;-67
2023/12/23 06:29:15;;;;;;;;;10.00;9.75;;;;;6.83;71.82;100268.63;146611;613;46010;-67
2023/12/23 06:32:16;;;;;;;;;12.50;9.75;;;;;6.91;70.76;100264.81;146608;657;47014;-66
2023/12/23 06:35:31;;;;;;;;;13.50;13.00;;;;;7.03;71.11;100271.47;146617;581;46021;-65
2023/12/23 06:38:34;;;;;;;;;15.25;13.25;;;;;7.12;71.07;100261.69;146609;563;46016;-66
2023/12/23 06:41:36;;;;;;;;;19.75;16.75;;;;;7.24;70.33;100262.41;146613;577;46021;-65
2023/12/23 06:44:42;;;;;;;;;20.00;16.75;;;;;7.44;70.68;100249.75;146607;569;47012;-65
2023/12/23 06:47:39;;;;;;;;;18.00;15.00;;;;;7.83;70.71;100245.91;146611;569;47010;-64
2023/12/23 06:50:44;;;;;;;;;16.75;14.00;;;;;8.54;73.11;100246.28;146609;576;46012;-65
2023/12/23 06:53:39;;;;;;;;;27.25;24.75;;;;;9.57;72.06;100246.19;146603;707;47020;-64
2023/12/23 06:56:56;;;;;;;;;25.50;17.75;;;;;10.75;65.86;100255.84;146607;618;46016;-65
2023/12/23 06:59:56;;;;;;;;;19.00;17.00;;;;;11.84;62.90;100258.56;146610;569;47010;-65
2023/12/23 07:03:02;;;;;;;;;17.25;17.25;;;;;12.87;61.02;100265.84;146608;611;46027;-65
2023/12/23 07:06:16;;;;;;;;;26.50;21.50;;;;;13.86;58.83;100270.84;146613;576;47020;-66
2023/12/23 07:09:14;;;;;;;;;33.50;29.75;;;;;14.83;53.49;100291.00;146609;579;46913;-65
2023/12/23 07:12:26;;;;;;;;;32.25;28.75;;;;;15.42;52.40;100281.22;146608;564;47010;-65
2023/12/23 07:15:27;;;;;;;;;52.00;40.00;;;;;15.90;50.20;100286.75;146611;672;46016;-67
2023/12/23 07:18:21;;;;;;;;;38.50;33.75;;;;;16.14;49.64;100273.34;146607;580;47011;-65
2023/12/23 07:21:16;;;;;;;;;40.75;35.00;;;;;16.59;49.04;100269.88;146609;585;46016;-66
2023/12/23 07:24:23;;;;;;;;;36.00;29.75;;;;;17.05;48.97;100272.53;146604;670;46010;-65
2023/12/23 07:27:39;;;;;;;;;;;;;;;;;;;;;
2023/12/23 07:30:42;;;;;;;;;31.25;27.25;;;;;17.76;46.04;100282.44;146610;565;46020;-67
2023/12/23 07:33:49;;;;;;;;;45.00;36.25;;;;;18.08;44.08;100274.16;146608;624;47012;-67
2023/12/23 07:37:03;;;;;;;;;37.50;31.75;;;;;18.25;45.64;100275.25;146610;738;47020;-67
2023/12/23 07:40:04;;;;;;;;;44.50;35.00;;;;;18.44;44.37;100287.78;146609;740;46913;-62
2023/12/23 07:43:19;;;;;;;;;45.00;36.25;;;;;18.65;45.11;100295.00;146608;569;46010;-66
2023/12/23 07:46:23;;;;;;;;;50.75;40.00;;;;;18.68;43.40;100295.03;146605;652;46014;-66
2023/12/23 07:49:27;;;;;;;;;54.75;43.75;;;;;18.76;43.24;100307.44;146606;565;47021;-66
2023/12/23 07:52:31;;;;;;;;;54.75;43.00;;;;;18.62;42.56;100317.72;146603;586;47012;-65
2023/12/23 07:55:34;;;;;;;;;58.75;46.75;;;;;18.44;43.32;100315.75;146600;594;47020;-65
2023/12/23 07:58:57;;;;;;;;;57.25;44.00;;;;;18.16;43.25;100317.12;146603;614;47012;-65
2023/12/23 08:02:03;;;;;;;;;62.00;47.75;;;;;17.89;44.29;100323.75;146610;570;46020;-65
2023/12/23 08:05:02;;;;;;;;;62.00;47.50;;;;;17.65;44.95;100328.56;146607;588;46037;-65
2023/12/23 08:07:55;;;;;;;;;57.75;46.75;;;;;17.42;45.17;100331.69;146612;589;46010;-65
2023/12/23 08:11:07;;;;;;;;;55.00;43.00;;;;;17.27;45.86;100326.19;146608;671;46013;-65
2023/12/23 08:14:12;;;;;;;;;51.25;40.75;;;;;17.14;46.08;100330.31;146608;565;46020;-67
2023/12/23 08:17:14;;;;;;;;;47.50;38.00;;;;;17.07;45.08;100333.66;146609;658;46016;-67
2023/12/23 08:20:14;;;;;;;;;53.25;42.50;;;;;16.99;45.82;100332.66;146610;590;47010;-67
2023/12/23 08:23:16;;;;;;;;;52.00;42.00;;;;;16.94;47.24;100331.69;146604;628;47016;-67
2023/12/23 08:26:08;;;;;;;;;56.25;44.00;;;;;16.92;47.26;100336.91;146601;597;46021;-66
2023/12/23 08:29:17;;;;;;;;;57.75;45.50;;;;;16.96;48.35;100335.22;146604;619;47016;-65
2023/12/23 08:32:31;;;;;;;;;60.50;46.00;;;;;15.29;49.93;100036.22;146607;576;46917;-65
2023/12/23 08:35:31;;;;;;;;;60.25;46.75;;;;;17.18;49.28;100341.75;146604;673;47014;-65
2023/12/23 08:38:31;;;;;;;;;61.00;48.00;;;;;17.23;47.98;100333.13;146610;616;47010;-66
2023/12/23 08:41:30;;;;;;;;;56.25;45.25;;;;;17.15;47.27;100352.16;146607;705;47013;-65
2023/12/23 08:44:40;;;;;;;;;30.25;27.75;;;;;15.39;47.05;100088.72;146607;651;46020;-66
2023/12/23 08:47:36;;;;;;;;;25.75;23.00;;;;;16.73;46.22;100363.50;146604;598;47017;-64
2023/12/23 08:50:33;;;;;;;;;23.50;21.50;;;;;16.62;47.53;100377.28;146615;594;46020;-64
2023/12/23 08:53:32;;;;;;;;;20.50;16.75;;;;;16.66;46.54;100387.81;146609;648;46017;-65
2023/12/23 08:56:24;;;;;;;;;20.25;18.50;;;;;16.74;46.82;100384.50;146602;569;47021;-65
2023/12/23 08:59:21;;;;;;;;;21.75;19.50;;;;;16.81;47.27;100393.41;146606;576;46016;-65
2023/12/23 09:02:33;;;;;;;;;22.50;20.00;;;;;16.92;47.23;100383.16;146613;604;47010;-65
2023/12/23 09:05:30;;;;;;;;;23.25;20.75;;;;;17.00;46.60;100384.19;146601;724;47012;-66
2023/12/23 09:08:25;;;;;;;;;24.50;22.00;;;;;17.09;46.83;100379.13;146612;563;47014;-66
2023/12/23 09:11:27;;;;;;;;;23.75;20.25;;;;;17.12;46.73;100378.31;146602;572;47014;-66
2023/12/23 09:14:22;;;;;;;;;27.00;24.25;;;;;17.19;46.53;100382.78;146614;578;46031;-65
2023/12/23 09:17:34;;;;;;;;;24.75;22.50;;;;;13.93;47.81;99812.31;146604;564;47913;-66
2023/12/23 09:20:35;;;;;;;;;22.00;20.00;;;;;15.81;46.32;100120.97;146610;582;46020;-66
2023/12/23 09:23:31;;;;;;;;;27.00;23.25;;;;;17.26;46.05;100358.50;146607;598;46016;-66
2023/12/23 09:26:33;;;;;;;;;24.50;23.00;;;;;17.29;48.19;100362.03;146608;605;47014;-65
2023/12/23 09:29:35;;;;;;;;;25.75;22.50;;;;;17.35;46.80;100360.38;146603;616;47012;-66
2023/12/23 09:32:43;;;;;;;;;28.75;26.00;;;;;17.31;45.98;100354.19;146610;569;47010;-67
2023/12/23 09:35:51;;;;;;;;;25.75;23.50;;;;;17.24;45.56;100347.09;146607;572;46016;-66
2023/12/23 09:38:51;;;;;;;;;23.50;22.25;;;;;17.27;47.09;100342.78;146610;576;47010;-65
2023/12/23 09:42:13;;;;;;;;;24.50;22.75;;;;;17.43;48.65;100340.44;146605;656;47014;-66
2023/12/23 09:45:05;;;;;;;;;27.50;24.50;;;;;17.61;46.29;100326.75;146610;576;47014;-66
2023/12/23 09:48:24;;;;;;;;;20.00;18.50;;;;;17.65;46.57;100326.81;146602;616;47016;-67
2023/12/23 09:51:57;;;;;;;;;23.75;20.75;;;;;14.42;48.06;99762.09;146612;641;46010;-65
2023/12/23 09:55:20;;;;;;;;;23.50;19.25;;;;;17.76;47.67;100325.25;146609;604;46036;-65
2023/12/23 09:58:18;;;;;;;;;19.75;18.50;;;;;17.78;46.47;100327.94;146605;651;46020;-66
2023/12/23 10:01:34;;;;;;;;;20.25;20.00;;;;;13.77;47.46;99633.88;146610;585;47017;-66
2023/12/23 10:04:28;;;;;;;;;22.00;19.00;;;;;17.76;45.87;100324.38;146609;592;47010;-65
2023/12/23 10:07:26;;;;;;;;;22.00;21.25;;;;;17.80;45.55;100323.59;146606;582;46014;-66
2023/12/23 10:10:31;;;;;;;;;22.25;21.50;;;;;17.86;47.01;100328.06;146609;580;46021;-65
2023/12/23 10:13:29;;;;;;;;;20.75;18.75;;;;;17.87;45.44;100317.59;146611;628;46012;-66
2023/12/23 10:16:25;;;;;;;;;19.75;18.25;;;;;17.89;44.81;100312.38;146611;588;47021;-67
2023/12/23 10:19:24;;;;;;;;;21.00;18.75;;;;;17.95;46.65;100312.47;146608;580;47016;-65
2023/12/23 10:22:46;;;;;;;;;23.75;19.00;;;;;18.11;46.99;100309.19;146612;623;46010;-66
2023/12/23 10:25:44;;;;;;;;;20.50;19.50;;;;;18.32;45.68;100311.25;146610;600;46017;-66
2023/12/23 10:29:10;;;;;;;;;20.25;18.75;;;;;14.79;46.33;99682.81;146609;582;46020;-66
2023/12/23 10:32:08;;;;;;;;;19.75;18.00;;;;;18.62;45.50;100310.72;146607;579;47913;-67
2023/12/23 10:35:35;;;;;;;;;18.00;12.25;;;;;15.76;45.80;99788.91;146615;596;46010;-66
2023/12/23 10:38:52;;;;;;;;;14.00;13.00;;;;;15.38;45.30;99682.03;146609;574;46012;-67
2023/12/23 10:42:12;;;;;;;;;18.25;15.75;;;;;19.09;45.66;100299.00;146609;636;47010;-65
2023/12/23 10:45:14;;;;;;;;;21.50;17.75;;;;;19.09;40.71;100291.13;146608;579;47012;-65
2023/12/23 10:48:26;;;;;;;;;40.25;32.00;;;;;19.04;42.19;100292.84;146612;612;46021;-65
2023/12/23 10:51:32;;;;;;;;;22.25;19.00;;;;;19.03;41.99;100301.56;146604;571;47016;-65
2023/12/23 10:54:27;;;;;;;;;16.75;16.50;;;;;18.99;39.55;100290.16;146610;661;47014;-67
2023/12/23 10:57:59;;;;;;;;;12.75;11.75;;;;;19.02;40.08;100289.31;146607;705;46914;-66
2023/12/23 11:01:00;;;;;;;;;10.67;9.00;;;;;19.07;39.31;100282.34;146608;619;46020;-67
2023/12/23 11:04:33;;;;;;;;;5.33;4.33;;;;;16.26;43.30;99780.94;146608;644;47915;-65
2023/12/23 11:07:39;;;;;;;;;4.33;4.33;;;;;19.37;39.09;100276.47;146614;645;46020;-65
2023/12/23 11:10:35;;;;;;;;;9.25;8.00;;;;;19.47;37.70;100280.97;146609;582;47012;-66
2023/12/23 11:13:36;;;;;;;;;8.25;7.25;;;;;19.56;38.09;100269.59;146614;641;46010;-65
2023/12/23 11:16:36;;;;;;;;;6.67;6.67;;;;;19.58;36.08;100267.87;146612;590;47013;-66
2023/12/23 11:19:31;;;;;;;;;5.67;5.67;;;;;19.57;34.80;100269.62;146618;625;46010;-66
2023/12/23 11:22:32;;;;;;;;;3.67;3.00;;;;;19.60;36.91;100268.78;146610;588;47013;-67
2023/12/23 11:26:00;;;;;;;;;;;;;;;;;;;;;
2023/12/23 11:29:20;;;;;;;;;4.67;3.00;;;;;19.83;40.80;100247.91;146610;600;47012;-66
2023/12/23 11:32:33;;;;;;;;;3.33;3.33;;;;;20.05;38.13;100252.41;146602;581;47917;-65
2023/12/23 11:35:55;;;;;;;;;9.00;4.67;;;;;20.25;36.35;100231.47;146609;584;47012;-66
2023/12/23 11:38:57;;;;;;;;;6.00;5.00;;;;;20.40;37.77;100235.00;146614;585;47011;-66
2023/12/23 11:42:03;;;;;;;;;5.00;3.00;;;;;20.52;35.74;100235.94;146611;584;46016;-66
2023/12/23 11:45:04;;;;;;;;;3.00;3.00;;;;;20.62;36.21;100252.66;146618;577;46029;-67
2023/12/23 11:48:06;;;;;;;;;5.33;3.00;;;;;20.74;35.26;100246.56;146611;645;47012;-67
2023/12/23 11:51:26;;;;;;;;;3.00;3.00;;;;;20.88;39.17;100254.50;146613;656;47020;-66
2023/12/23 11:54:44;;;;;;;;;6.00;6.00;;;;;21.00;34.53;100243.97;146610;638;46911;-66
2023/12/23 11:57:52;;;;;;;;;11.33;8.33;;;;;21.04;34.84;100247.50;146615;624;47014;-67
2023/12/23 12:00:56;;;;;;;;;8.00;7.00;;;;;21.16;34.80;100252.78;146611;566;46013;-66
2023/12/23 12:03:57;;;;;;;;;6.00;3.75;;;;;21.29;34.68;100251.00;146609;680;47010;-65
2023/12/23 12:07:10;;;;;;;;;11.00;10.00;;;;;21.49;36.63;100253.66;146610;578;46016;-66
2023/12/23 12:10:32;;;;;;;;;;;;;;;;;;;;;
2023/12/23 12:13:58;;;;;;;;;14.00;11.00;;;;;21.57;33.00;100250.16;146608;652;47012;-66
2023/12/23 12:17:00;;;;;;;;;13.25;11.25;;;;;21.62;35.63;100261.59;146613;584;46010;-65
2023/12/23 12:20:26;;;;;;;;;6.67;5.67;;;;;18.35;35.38;99677.84;146609;627;46016;-65
2023/12/23 12:23:21;;;;;;;;;3.00;3.00;;;;;21.78;33.49;100251.00;146617;564;46011;-66
2023/12/23 12:26:39;;;;;;;;;1.00;1.00;;;;;22.05;34.29;100242.09;146609;628;47012;-65
2023/12/23 12:29:42;;;;;;;;;;;;;;;;;;;;;
2023/12/23 12:32:44;;;;;;;;;2.67;1.00;;;;;22.55;33.82;100259.53;146610;590;47012;-65
2023/12/23 12:35:36;;;;;;;;;3.33;3.00;;;;;22.72;32.77;100252.41;146611;636;46020;-65
2023/12/23 12:38:42;;;;;;;;;2.00;1.67;;;;;23.00;32.83;100266.34;146612;584;46016;-65
2023/12/23 12:41:40;;;;;;;;;3.00;2.00;;;;;23.23;31.83;100273.25;146618;598;46041;-66
2023/12/23 12:44:36;;;;;;;;;5.00;4.00;;;;;23.42;29.55;100263.38;146611;569;46017;-66
2023/12/23 12:47:34;;;;;;;;;9.00;9.00;;;;;23.43;31.82;100270.44;146617;646;46020;-64
2023/12/23 12:50:48;;;;;;;;;4.67;4.67;;;;;20.77;34.00;99823.25;146605;611;47015;-65
2023/12/23 12:53:50;;;;;;;;;11.00;8.67;;;;;23.27;29.67;100280.25;146615;578;46020;-68
2023/12/23 12:57:13;;;;;;;;;9.67;9.67;;;;;19.40;34.52;99629.78;146609;563;46016;-66
2023/12/23 13:00:25;;;;;;;;;7.67;7.00;;;;;23.11;30.81;100274.19;146614;589;46023;-64
2023/12/23 13:03:28;;;;;;;;;10.67;10.00;;;;;23.13;32.57;100277.72;146612;563;46016;-67
2023/12/23 13:06:20;;;;;;;;;11.00;8.67;;;;;23.12;31.67;100278.63;146609;569;46011;-64
2023/12/23 13:09:40;;;;;;;;;9.00;8.00;;;;;23.32;36.29;100283.75;146611;590;47012;-64
2023/12/23 13:13:01;;;;;;;;;11.67;9.67;;;;;23.52;35.55;100286.25;146615;646;46020;-66
2023/12/23 13:16:13;;;;;;;;;5.00;5.00;;;;;23.78;34.50;100274.56;146611;592;46016;-64
2023/12/23 13:19:25;;;;;;;;;7.33;7.00;;;;;24.01;31.31;100272.53;146615;569;47010;-65
2023/12/23 13:22:27;;;;;;;;;10.67;10.00;;;;;24.09;31.75;100278.63;146612;570;46034;-65
2023/12/23 13:25:37;;;;;;;;;13.25;12.50;;;;;24.00;32.94;100264.63;146610;675;47020;-65
2023/12/23 13:28:35;;;;;;;;;14.33;14.33;;;;;23.88;31.32;100276.22;146609;569;46012;-68
2023/12/23 13:31:36;;;;;;;;;17.50;17.25;;;;;23.90;30.56;100271.78;146605;693;47021;-66
2023/12/23 13:34:32;;;;;;;;;11.67;10.67;;;;;23.96;30.74;100275.25;146607;609;46018;-66
2023/12/23 13:37:35;;;;;;;;;10.00;10.00;;;;;24.04;31.39;100261.91;146609;571;47010;-65
2023/12/23 13:40:38;;;;;;;;;11.33;8.67;;;;;20.97;34.00;99722.16;146608;705;46016;-67
2023/12/23 13:43:55;;;;;;;;;9.00;9.00;;;;;21.48;34.97;99801.75;146615;640;47010;-65
2023/12/23 13:47:06;;;;;;;;;17.00;14.33;;;;;24.28;31.79;100265.19;146611;576;46915;-66
2023/12/23 13:50:21;;;;;;;;;26.00;24.25;;;;;24.31;31.03;100281.91;146613;586;46014;-66
2023/12/23 13:53:16;;;;;;;;;11.67;10.00;;;;;24.29;29.47;100286.34;146601;578;47012;-66
2023/12/23 13:56:19;;;;;;;;;9.67;7.67;;;;;24.19;33.49;100277.63;146614;628;47010;-66
2023/12/23 13:59:34;;;;;;;;;2.00;1.33;;;;;21.13;35.37;99765.09;146612;668;47013;-66
2023/12/23 14:02:38;;;;;;;;;5.00;4.00;;;;;24.06;29.62;100291.03;146618;577;46010;-67
2023/12/23 14:05:32;;;;;;;;;7.00;7.00;;;;;24.03;30.61;100294.59;146609;571;46015;-66
2023/12/23 14:08:36;;;;;;;;;8.00;8.00;;;;;24.00;32.94;100291.09;146615;579;46020;-65
2023/12/23 14:11:42;;;;;;;;;17.00;13.50;;;;;22.41;33.59;100048.28;146612;565;46016;-66
2023/12/23 14:14:49;;;;;;;;;18.75;16.75;;;;;23.61;30.43;100298.50;146611;638;47010;-66
2023/12/23 14:17:53;;;;;;;;;8.00;8.00;;;;;20.63;33.56;99840.87;146607;576;47012;-67
2023/12/23 14:20:52;;;;;;;;;10.00;10.00;;;;;22.96;35.33;100291.06;146615;607;46020;-66
2023/12/23 14:23:44;;;;;;;;;10.67;10.00;;;;;22.63;36.59;100293.88;146608;590;47016;-67
2023/12/23 14:26:50;;;;;;;;;;;;;;;;;;;;;
2023/12/23 14:29:52;;;;;;;;;13.25;12.50;;;;;22.03;37.51;100300.22;146604;706;47012;-66